Time;durP1;ratioP1;P1;durP2;ratioP2;P2;SDS_P1;SDS_P2;PMS_P1;PMS_P2;Temp;Humidity;BMP_temperature;BMP_pressure;BME280_temperature;BME280_humidity;BME280_pressure;Samples;Min_cycle;Max_cycle;Signal;HPM_P1;HPM_P2
2021/08/08 00:00:46;;;;;;;;;;;;;;;18.99;62.32;100004.70;1460019;89;20795;-83
2021/08/08 00:03:12;;;;;;;;;;;;;;;18.94;62.87;100008.85;1456867;90;20811;-83
2021/08/08 00:05:37;;;;;;;;;;;;;;;18.90;63.33;100011.67;1455850;89;20326;-83
2021/08/08 00:08:04;;;;;;;;;;;;;;;18.85;63.68;100010.13;1453406;90;20266;-83
2021/08/08 00:10:30;;;;;;;;;;;;;;;18.81;63.11;100010.23;1444785;90;20311;-83
2021/08/08 00:12:56;;;;;;;;;;;;;;;18.78;63.06;100009.31;1453136;90;20332;-83
2021/08/08 00:15:22;;;;;;;;;;;;;;;18.74;63.05;100010.78;1456426;89;20832;-83
2021/08/08 00:17:48;;;;;;;;;;;;;;;18.69;63.98;100006.02;1450422;90;20355;-83
2021/08/08 00:20:14;;;;;;;;;;;;;;;18.65;65.04;100010.69;1455982;90;20404;-83
2021/08/08 00:22:40;;;;;;;;;;;;;;;18.61;64.09;100012.12;1450069;90;20385;-83
2021/08/08 00:25:09;;;;;;;;;;;;;;;18.55;65.30;100011.62;1452980;90;20347;-83
2021/08/08 00:27:36;;;;;;;;;;;;;;;18.49;65.30;100010.60;1452595;89;20384;-83
2021/08/08 00:30:06;;;;;;;;;;;;;;;18.42;64.82;100014.64;1458860;90;20429;-83
2021/08/08 00:32:32;;;;;;;;;;;;;;;18.37;64.68;100010.42;1459027;89;20274;-83
2021/08/08 00:34:58;;;;;;;;;;;;;;;18.32;64.94;100010.22;1456639;90;20253;-83
2021/08/08 00:37:24;;;;;;;;;;;;;;;18.27;65.13;100016.73;1451397;89;20431;-84
2021/08/08 00:39:50;;;;;;;;;;;;;;;18.22;65.85;100015.19;1452290;89;20326;-83
2021/08/08 00:42:16;;;;;;;;;;;;;;;18.17;66.44;100020.34;1450411;89;20334;-80
2021/08/08 00:44:42;;;;;;;;;;;;;;;18.12;65.73;100022.80;1457980;90;20400;-80
2021/08/08 00:47:10;;;;;;;;;;;;;;;18.08;65.44;100022.92;1456847;90;20266;-80
2021/08/08 00:49:35;;;;;;;;;;;;;;;18.02;66.47;100019.22;1450032;90;20780;-80
2021/08/08 00:52:02;;;;;;;;;;;;;;;17.96;67.13;100019.52;1453637;89;20396;-80
2021/08/08 00:54:28;;;;;;;;;;;;;;;17.91;66.19;100017.97;1450607;87;20311;-80
2021/08/08 00:56:54;;;;;;;;;;;;;;;17.85;66.48;100013.44;1457620;90;20319;-79
2021/08/08 00:59:20;;;;;;;;;;;;;;;17.84;66.08;100022.51;1448824;90;20436;-80
2021/08/08 01:01:48;;;;;;;;;;;;;;;17.84;67.59;100027.86;1456152;90;20333;-80
2021/08/08 01:04:19;;;;;;;;;;;;;;;17.83;67.21;100026.20;1451006;90;20333;-79
2021/08/08 01:07:01;;;;;;;;;;;;;;;17.84;67.15;100022.51;1453434;90;20379;-80
2021/08/08 01:09:29;;;;;;;;;;;;;;;17.85;67.90;100020.13;1452518;90;20333;-80
2021/08/08 01:11:56;;;;;;;;;;;;;;;17.85;67.04;100018.80;1458832;90;20751;-80
2021/08/08 01:14:22;;;;;;;;;;;;;;;17.86;67.96;100015.59;1446563;89;20283;-80
2021/08/08 01:16:48;;;;;;;;;;;;;;;17.84;67.89;100018.50;1454890;89;20320;-80
2021/08/08 01:19:17;;;;;;;;;;;;;;;17.84;67.56;100015.82;1456280;89;20385;-80
2021/08/08 01:21:45;;;;;;;;;;;;;;;17.82;67.24;100015.19;1460778;90;20311;-80
2021/08/08 01:24:12;;;;;;;;;;;;;;;17.79;67.88;100012.92;1455841;89;20334;-80
2021/08/08 01:26:40;;;;;;;;;;;;;;;17.76;68.17;100015.98;1460184;90;20266;-80
2021/08/08 01:29:06;;;;;;;;;;;;;;;17.73;67.96;100009.18;1451755;89;20274;-80
2021/08/08 01:31:32;;;;;;;;;;;;;;;17.69;68.50;100009.78;1450948;90;20274;-80
2021/08/08 01:33:58;;;;;;;;;;;;;;;17.65;68.35;100004.54;1448880;90;20850;-80
2021/08/08 01:36:25;;;;;;;;;;;;;;;17.61;68.07;100010.82;1463677;90;20260;-80
2021/08/08 01:39:07;;;;;;;;;;;;;;;17.57;68.11;100009.05;1446722;90;20809;-80
2021/08/08 01:41:37;;;;;;;;;;;;;;;17.51;67.84;100006.36;1455655;90;20318;-80
2021/08/08 01:44:04;;;;;;;;;;;;;;;17.47;67.62;99999.78;1454748;90;20252;-81
2021/08/08 01:46:32;;;;;;;;;;;;;;;17.43;68.77;100002.53;1452990;89;20851;-80
2021/08/08 01:48:58;;;;;;;;;;;;;;;17.39;68.35;100002.64;1446676;90;20422;-80
2021/08/08 01:51:26;;;;;;;;;;;;;;;17.33;69.79;100002.42;1457456;89;20288;-80
2021/08/08 01:53:52;;;;;;;;;;;;;;;17.31;68.88;100002.30;1447385;89;20283;-80
2021/08/08 01:56:19;;;;;;;;;;;;;;;17.28;69.44;100012.07;1465558;89;20297;-80
2021/08/08 01:58:45;;;;;;;;;;;;;;;17.23;68.66;100003.30;1471311;89;20317;-80
2021/08/08 02:01:11;;;;;;;;;;;;;;;17.19;68.77;100008.75;1462716;89;20415;-81
2021/08/08 02:03:38;;;;;;;;;;;;;;;17.16;69.87;100002.99;1451655;89;20825;-80
2021/08/08 02:06:06;;;;;;;;;;;;;;;17.10;70.99;100004.09;1456829;89;20303;-80
2021/08/08 02:08:32;;;;;;;;;;;;;;;17.07;71.97;100008.51;1458795;89;20251;-80
2021/08/08 02:10:58;;;;;;;;;;;;;;;17.02;71.70;100008.28;1464987;89;20333;-80
2021/08/08 02:13:24;;;;;;;;;;;;;;;17.02;71.79;100006.13;1459689;89;20518;-81
2021/08/08 02:15:49;;;;;;;;;;;;;;;17.00;72.00;100006.31;1469836;89;20344;-80
2021/08/08 02:18:16;;;;;;;;;;;;;;;17.01;70.84;100003.15;1461764;89;20408;-79
2021/08/08 02:20:46;;;;;;;;;;;;;;;17.03;70.48;100011.77;1459743;89;20405;-80
2021/08/08 02:23:13;;;;;;;;;;;;;;;17.05;71.58;100012.41;1460997;89;20392;-79
2021/08/08 02:25:40;;;;;;;;;;;;;;;17.06;70.96;100008.70;1464214;89;20251;-80
2021/08/08 02:28:09;;;;;;;;;;;;;;;17.07;71.20;100005.02;1456726;89;20373;-80
2021/08/08 02:30:36;;;;;;;;;;;;;;;17.10;70.51;100005.95;1460320;89;20289;-80
2021/08/08 02:33:03;;;;;;;;;;;;;;;17.11;70.54;100004.40;1456573;89;20454;-80
2021/08/08 02:35:29;;;;;;;;;;;;;;;17.12;71.00;100012.75;1470510;89;20325;-80
2021/08/08 02:37:55;;;;;;;;;;;;;;;17.11;71.02;100015.09;1458948;88;20348;-80
2021/08/08 02:40:21;;;;;;;;;;;;;;;17.09;71.08;100014.49;1467029;89;20302;-80
2021/08/08 02:42:47;;;;;;;;;;;;;;;17.06;70.55;100016.23;1463641;89;20295;-80
2021/08/08 02:45:13;;;;;;;;;;;;;;;17.01;70.74;100011.98;1456907;89;20349;-80
2021/08/08 02:47:39;;;;;;;;;;;;;;;16.98;70.54;100007.05;1451867;89;20354;-80
2021/08/08 02:50:08;;;;;;;;;;;;;;;16.95;70.93;100000.76;1462443;89;20282;-80
2021/08/08 02:52:35;;;;;;;;;;;;;;;16.90;70.71;100002.68;1459803;89;20311;-79
2021/08/08 02:55:01;;;;;;;;;;;;;;;16.86;70.41;100005.94;1458368;87;20310;-80
2021/08/08 02:57:27;;;;;;;;;;;;;;;16.81;71.55;100009.22;1459042;89;20310;-80
2021/08/08 02:59:53;;;;;;;;;;;;;;;16.78;70.90;100018.16;1459604;89;20281;-79
2021/08/08 03:02:19;;;;;;;;;;;;;;;16.73;71.87;100017.38;1459337;89;20258;-80
2021/08/08 03:04:45;;;;;;;;;;;;;;;16.68;72.16;100021.95;1462038;89;20889;-79
2021/08/08 03:07:11;;;;;;;;;;;;;;;16.65;72.03;100013.00;1462695;89;20302;-80
2021/08/08 03:09:37;;;;;;;;;;;;;;;16.64;73.26;100021.23;1467124;89;20422;-79
2021/08/08 03:12:03;;;;;;;;;;;;;;;16.60;72.58;100023.48;1450718;88;20772;-79
2021/08/08 03:14:29;;;;;;;;;;;;;;;16.57;72.32;100023.87;1447053;89;20870;-80
2021/08/08 03:16:55;;;;;;;;;;;;;;;16.53;71.82;100022.59;1464352;89;20393;-79
2021/08/08 03:19:21;;;;;;;;;;;;;;;16.52;72.57;100022.30;1436935;89;20392;-80
2021/08/08 03:21:47;;;;;;;;;;;;;;;16.53;72.55;100027.94;1455515;89;20399;-80
2021/08/08 03:24:13;;;;;;;;;;;;;;;16.55;72.52;100026.42;1465318;89;20950;-80
2021/08/08 03:26:39;;;;;;;;;;;;;;;16.59;72.83;100029.00;1451825;89;20259;-80
2021/08/08 03:29:05;;;;;;;;;;;;;;;16.63;72.52;100025.76;1454769;89;20317;-80
2021/08/08 03:31:31;;;;;;;;;;;;;;;16.68;72.08;100024.63;1462136;89;20347;-79
2021/08/08 03:33:57;;;;;;;;;;;;;;;16.74;72.31;100026.20;1460938;89;20848;-80
2021/08/08 03:36:23;;;;;;;;;;;;;;;16.80;71.64;100025.44;1451267;89;20318;-80
2021/08/08 03:38:49;;;;;;;;;;;;;;;16.83;71.93;100035.73;1452757;89;20251;-80
2021/08/08 03:41:16;;;;;;;;;;;;;;;16.86;71.78;100029.98;1462896;89;21397;-79
2021/08/08 03:43:42;;;;;;;;;;;;;;;16.92;71.68;100034.57;1453649;89;20295;-80
2021/08/08 03:46:08;;;;;;;;;;;;;;;16.96;71.75;100024.30;1450748;89;20472;-80
2021/08/08 03:48:34;;;;;;;;;;;;;;;16.97;71.23;100025.94;1459398;89;20891;-79
2021/08/08 03:51:00;;;;;;;;;;;;;;;16.98;71.65;100025.75;1457395;89;20339;-80
2021/08/08 03:53:26;;;;;;;;;;;;;;;16.97;71.58;100029.43;1461115;89;20349;-79
2021/08/08 03:55:52;;;;;;;;;;;;;;;16.96;71.56;100026.45;1462377;89;20332;-80
2021/08/08 03:58:18;;;;;;;;;;;;;;;16.96;71.72;100024.30;1471487;89;20303;-80
2021/08/08 04:00:44;;;;;;;;;;;;;;;16.96;71.53;100035.81;1469262;89;20280;-79
2021/08/08 04:03:09;;;;;;;;;;;;;;;16.96;72.27;100046.50;1452353;89;20414;-80
2021/08/08 04:05:35;;;;;;;;;;;;;;;16.96;72.04;100037.14;1454309;89;20244;-79
2021/08/08 04:08:01;;;;;;;;;;;;;;;16.97;72.41;100050.00;1463018;89;20288;-79
2021/08/08 04:10:27;;;;;;;;;;;;;;;16.98;71.69;100057.83;1469462;89;20309;-79
2021/08/08 04:12:53;;;;;;;;;;;;;;;17.00;73.16;100054.42;1459279;89;20838;-79
2021/08/08 04:15:19;;;;;;;;;;;;;;;17.03;74.19;100057.22;1452348;89;20437;-80
2021/08/08 04:17:45;;;;;;;;;;;;;;;17.02;74.20;100061.75;1463264;89;20259;-80
2021/08/08 04:20:11;;;;;;;;;;;;;;;17.01;74.39;100066.79;1459074;89;20780;-79
2021/08/08 04:22:37;;;;;;;;;;;;;;;17.05;74.26;100064.02;1457993;89;20867;-80
2021/08/08 04:25:04;;;;;;;;;;;;;;;17.11;73.96;100059.21;1465293;88;20971;-80
2021/08/08 04:27:30;;;;;;;;;;;;;;;17.18;73.93;100055.25;1462369;89;20347;-80
2021/08/08 04:29:56;;;;;;;;;;;;;;;17.28;73.41;100057.53;1463321;88;20436;-80
2021/08/08 04:32:23;;;;;;;;;;;;;;;17.37;73.19;100059.00;1458763;89;20348;-79
2021/08/08 04:34:49;;;;;;;;;;;;;;;17.48;73.19;100057.60;1452812;89;20730;-80
2021/08/08 04:37:15;;;;;;;;;;;;;;;17.58;72.63;100056.20;1456520;89;20274;-79
2021/08/08 04:39:41;;;;;;;;;;;;;;;17.71;72.38;100062.59;1453408;89;20347;-80
2021/08/08 04:42:07;;;;;;;;;;;;;;;17.81;72.38;100061.22;1458526;89;20451;-80
2021/08/08 04:44:33;;;;;;;;;;;;;;;17.91;72.17;100063.48;1466094;89;20363;-79
2021/08/08 04:46:59;;;;;;;;;;;;;;;18.00;72.15;100072.95;1462310;89;20259;-80
2021/08/08 04:49:24;;;;;;;;;;;;;;;18.06;71.68;100067.81;1454147;89;20883;-80
2021/08/08 04:51:50;;;;;;;;;;;;;;;18.11;71.66;100071.53;1456780;89;20317;-80
2021/08/08 04:54:16;;;;;;;;;;;;;;;18.20;71.15;100072.15;1463464;89;20267;-80
2021/08/08 04:56:43;;;;;;;;;;;;;;;18.27;71.13;100067.63;1450907;89;20399;-80
2021/08/08 04:59:09;;;;;;;;;;;;;;;18.34;70.91;100071.12;1453780;90;20259;-80
2021/08/08 05:01:37;;;;;;;;;;;;;;;18.41;70.69;100062.58;1455642;89;20333;-79
2021/08/08 05:04:03;;;;;;;;;;;;;;;18.51;70.42;100065.34;1455404;90;20303;-80
2021/08/08 05:06:29;;;;;;;;;;;;;;;18.61;70.22;100067.87;1455348;90;20282;-79
2021/08/08 05:08:55;;;;;;;;;;;;;;;18.73;70.32;100072.11;1456615;90;20593;-79
2021/08/08 05:11:21;;;;;;;;;;;;;;;18.82;70.04;100068.72;1448704;89;20340;-80
2021/08/08 05:13:47;;;;;;;;;;;;;;;18.92;69.68;100081.97;1444442;90;20816;-80
2021/08/08 05:16:13;;;;;;;;;;;;;;;19.05;69.65;100080.31;1446704;90;20374;-80
2021/08/08 05:18:40;;;;;;;;;;;;;;;19.14;69.35;100076.34;1445950;89;20310;-80
2021/08/08 05:21:06;;;;;;;;;;;;;;;19.25;69.42;100082.39;1454312;89;20378;-79
2021/08/08 05:23:32;;;;;;;;;;;;;;;19.42;69.21;100070.66;1459098;90;20318;-80
2021/08/08 05:25:59;;;;;;;;;;;;;;;19.59;67.95;100079.01;1450287;89;20416;-80
2021/08/08 05:28:26;;;;;;;;;;;;;;;19.77;68.23;100079.16;1456796;89;20402;-80
2021/08/08 05:30:52;;;;;;;;;;;;;;;20.00;66.87;100076.43;1448813;90;20266;-80
2021/08/08 05:33:18;;;;;;;;;;;;;;;20.20;67.08;100077.63;1446950;89;20437;-80
2021/08/08 05:35:44;;;;;;;;;;;;;;;20.37;66.86;100076.03;1454478;89;21060;-80
2021/08/08 05:38:10;;;;;;;;;;;;;;;20.56;66.92;100076.90;1453531;89;20410;-80
2021/08/08 05:40:36;;;;;;;;;;;;;;;20.72;66.45;100083.05;1453485;89;20414;-79
2021/08/08 05:43:02;;;;;;;;;;;;;;;20.85;66.07;100087.46;1444807;89;20393;-79
2021/08/08 05:45:28;;;;;;;;;;;;;;;21.03;66.30;100085.33;1464233;90;20317;-80
2021/08/08 05:47:55;;;;;;;;;;;;;;;21.22;65.60;100090.16;1453888;89;20332;-79
2021/08/08 05:50:22;;;;;;;;;;;;;;;21.42;64.43;100090.47;1456847;90;20317;-79
2021/08/08 05:52:48;;;;;;;;;;;;;;;21.54;63.23;100082.73;1452254;90;20304;-80
2021/08/08 05:55:15;;;;;;;;;;;;;;;21.66;63.50;100095.42;1446310;90;20274;-79
2021/08/08 05:57:41;;;;;;;;;;;;;;;21.66;62.85;100092.19;1454595;88;20281;-79
2021/08/08 06:00:08;;;;;;;;;;;;;;;21.66;62.37;100091.37;1458132;89;20332;-79
2021/08/08 06:02:34;;;;;;;;;;;;;;;21.65;62.71;100095.13;1452976;89;20816;-79
2021/08/08 06:05:00;;;;;;;;;;;;;;;21.62;62.88;100090.48;1456276;89;20310;-80
2021/08/08 06:07:27;;;;;;;;;;;;;;;21.58;62.71;100092.01;1452792;89;20351;-80
2021/08/08 06:09:53;;;;;;;;;;;;;;;21.53;62.62;100082.97;1462486;88;20303;-79
2021/08/08 06:12:19;;;;;;;;;;;;;;;21.55;63.10;100077.66;1462262;89;20366;-79
2021/08/08 06:14:45;;;;;;;;;;;;;;;21.73;63.54;100081.34;1462152;89;20309;-79
2021/08/08 06:17:11;;;;;;;;;;;;;;;21.85;62.41;100083.55;1468410;89;20370;-79
2021/08/08 06:19:37;;;;;;;;;;;;;;;21.97;62.03;100069.56;1460431;88;20370;-80
2021/08/08 06:22:03;;;;;;;;;;;;;;;22.08;62.48;100074.16;1464111;88;20900;-80
2021/08/08 06:24:29;;;;;;;;;;;;;;;22.20;62.36;100079.59;1463596;89;20415;-79
2021/08/08 06:26:55;;;;;;;;;;;;;;;22.25;61.84;100078.91;1458445;89;20281;-80
2021/08/08 06:29:21;;;;;;;;;;;;;;;22.25;61.90;100084.30;1457343;89;20302;-79
2021/08/08 06:31:47;;;;;;;;;;;;;;;22.24;61.61;100085.34;1456854;89;20340;-80
2021/08/08 06:34:13;;;;;;;;;;;;;;;22.30;62.32;100092.52;1448770;89;20854;-80
2021/08/08 06:36:39;;;;;;;;;;;;;;;22.29;61.77;100090.86;1465689;89;20542;-80
2021/08/08 06:39:05;;;;;;;;;;;;;;;22.38;61.25;100094.84;1457507;89;20414;-80
2021/08/08 06:41:32;;;;;;;;;;;;;;;22.53;61.24;100093.06;1458806;89;20820;-79
2021/08/08 06:43:59;;;;;;;;;;;;;;;22.70;61.12;100097.20;1462102;89;20266;-79
2021/08/08 06:46:25;;;;;;;;;;;;;;;22.86;60.01;100099.19;1462009;89;20831;-79
2021/08/08 06:48:52;;;;;;;;;;;;;;;22.91;60.25;100095.26;1468250;89;20410;-80
2021/08/08 06:51:18;;;;;;;;;;;;;;;22.97;59.56;100101.08;1461680;89;20325;-80
2021/08/08 06:53:43;;;;;;;;;;;;;;;23.10;59.73;100093.27;1458710;89;20339;-79
2021/08/08 06:56:09;;;;;;;;;;;;;;;23.28;59.66;100102.27;1464921;89;20319;-79
2021/08/08 06:58:35;;;;;;;;;;;;;;;23.38;59.03;100093.81;1456533;88;20919;-80
2021/08/08 07:01:01;;;;;;;;;;;;;;;23.53;57.75;100100.58;1459556;89;20408;-78
2021/08/08 07:03:27;;;;;;;;;;;;;;;23.68;57.88;100099.53;1463251;90;20289;-80
2021/08/08 07:05:53;;;;;;;;;;;;;;;23.85;57.21;100088.27;1453569;90;20396;-79
2021/08/08 07:08:19;;;;;;;;;;;;;;;23.96;57.53;100085.19;1453446;89;20736;-79
2021/08/08 07:10:45;;;;;;;;;;;;;;;24.13;56.74;100097.91;1462004;89;20371;-80
2021/08/08 07:13:10;;;;;;;;;;;;;;;24.21;55.32;100100.20;1445199;90;20310;-80
2021/08/08 07:15:36;;;;;;;;;;;;;;;24.30;54.64;100100.89;1456947;89;20364;-80
2021/08/08 07:18:03;;;;;;;;;;;;;;;24.43;55.33;100105.20;1454833;90;20311;-80
2021/08/08 07:20:29;;;;;;;;;;;;;;;24.62;55.83;100104.92;1450350;89;20251;-80
2021/08/08 07:22:54;;;;;;;;;;;;;;;24.75;52.76;100106.75;1452459;90;20342;-80
2021/08/08 07:25:20;;;;;;;;;;;;;;;24.89;53.50;100107.76;1459387;89;20317;-80
2021/08/08 07:27:46;;;;;;;;;;;;;;;25.02;53.25;100111.98;1456988;90;20355;-81
2021/08/08 07:30:12;;;;;;;;;;;;;;;25.18;53.08;100110.61;1455762;90;20311;-80
2021/08/08 07:32:38;;;;;;;;;;;;;;;25.40;50.43;100119.25;1447201;90;20882;-80
2021/08/08 07:35:05;;;;;;;;;;;;;;;25.45;50.15;100116.60;1452478;90;20288;-80
2021/08/08 07:37:30;;;;;;;;;;;;;;;25.41;49.64;100116.30;1447561;90;20273;-80
2021/08/08 07:39:57;;;;;;;;;;;;;;;25.42;49.61;100117.11;1455480;90;20920;-81
2021/08/08 07:42:23;;;;;;;;;;;;;;;25.45;49.44;100122.02;1450751;89;20258;-80
2021/08/08 07:44:49;;;;;;;;;;;;;;;25.50;50.03;100120.73;1459134;89;20318;-80
2021/08/08 07:47:16;;;;;;;;;;;;;;;25.57;49.67;100119.98;1451960;90;20766;-80
2021/08/08 07:49:43;;;;;;;;;;;;;;;25.82;51.28;100126.76;1445014;90;20399;-80
2021/08/08 07:52:09;;;;;;;;;;;;;;;26.02;49.99;100124.28;1457278;90;20252;-81
2021/08/08 07:54:35;;;;;;;;;;;;;;;26.16;49.33;100123.32;1451398;90;20396;-80
2021/08/08 07:57:02;;;;;;;;;;;;;;;26.30;50.34;100127.78;1455275;89;20440;-80
2021/08/08 07:59:28;;;;;;;;;;;;;;;26.46;49.66;100128.16;1453704;90;20349;-80
2021/08/08 08:01:54;;;;;;;;;;;;;;;26.60;46.53;100129.11;1452898;90;20259;-80
2021/08/08 08:04:19;;;;;;;;;;;;;;;26.73;48.62;100125.95;1451694;90;21045;-80
2021/08/08 08:06:46;;;;;;;;;;;;;;;26.85;47.69;100123.04;1455997;89;20393;-81
2021/08/08 08:09:12;;;;;;;;;;;;;;;26.92;46.85;100122.25;1458971;90;20385;-80
2021/08/08 08:11:42;;;;;;;;;;;;;;;27.00;46.95;100119.03;1453167;90;20978;-80
2021/08/08 08:14:09;;;;;;;;;;;;;;;27.16;48.05;100117.22;1454601;89;20252;-80
2021/08/08 08:16:35;;;;;;;;;;;;;;;27.30;47.99;100111.58;1457466;90;20244;-80
2021/08/08 08:19:01;;;;;;;;;;;;;;;27.42;48.42;100114.91;1457098;90;20913;-80
2021/08/08 08:21:27;;;;;;;;;;;;;;;27.50;46.18;100122.25;1461603;89;20347;-80
2021/08/08 08:23:53;;;;;;;;;;;;;;;27.53;45.76;100127.15;1450618;89;20274;-80
2021/08/08 08:26:19;;;;;;;;;;;;;;;27.52;46.17;100126.89;1454611;89;20334;-80
2021/08/08 08:28:45;;;;;;;;;;;;;;;27.49;44.99;100128.78;1453284;89;21390;-81
2021/08/08 08:31:11;;;;;;;;;;;;;;;27.52;46.17;100124.17;1459099;89;20356;-80
2021/08/08 08:33:37;;;;;;;;;;;;;;;27.57;46.36;100120.11;1454950;90;20928;-80
2021/08/08 08:36:04;;;;;;;;;;;;;;;27.57;43.11;100126.91;1455759;90;20318;-80
2021/08/08 08:38:30;;;;;;;;;;;;;;;27.55;45.57;100119.55;1457834;90;20809;-80
2021/08/08 08:40:57;;;;;;;;;;;;;;;27.47;45.10;100121.43;1445875;89;20429;-80
2021/08/08 08:43:25;;;;;;;;;;;;;;;27.49;45.96;100117.91;1450013;90;20319;-83
2021/08/08 08:45:52;;;;;;;;;;;;;;;27.61;46.38;100123.37;1452308;90;20326;-84
2021/08/08 08:48:19;;;;;;;;;;;;;;;27.86;43.37;100122.65;1459047;90;20430;-83
2021/08/08 08:50:47;;;;;;;;;;;;;;;28.21;42.44;100125.67;1457391;90;20795;-83
2021/08/08 08:53:12;;;;;;;;;;;;;;;28.49;44.52;100118.89;1461181;90;20839;-83
2021/08/08 08:55:39;;;;;;;;;;;;;;;28.64;43.63;100124.30;1450394;90;20342;-83
2021/08/08 08:58:05;;;;;;;;;;;;;;;28.76;42.93;100118.02;1454326;88;20408;-84
2021/08/08 09:00:31;;;;;;;;;;;;;;;28.91;43.02;100123.15;1447749;89;20787;-84
2021/08/08 09:02:58;;;;;;;;;;;;;;;29.19;43.75;100126.62;1459154;90;20283;-83
2021/08/08 09:05:24;;;;;;;;;;;;;;;29.35;41.14;100127.39;1459267;90;20317;-83
2021/08/08 09:07:50;;;;;;;;;;;;;;;29.44;42.82;100123.53;1461656;90;20260;-83
2021/08/08 09:10:16;;;;;;;;;;;;;;;29.42;40.40;100127.89;1453457;89;20378;-84
2021/08/08 09:12:43;;;;;;;;;;;;;;;29.42;43.45;100122.98;1452612;89;20403;-84
2021/08/08 09:15:11;;;;;;;;;;;;;;;29.49;44.10;100124.84;1450984;90;20340;-83
2021/08/08 09:17:38;;;;;;;;;;;;;;;29.49;42.32;100119.39;1457811;90;20288;-83
2021/08/08 09:20:10;;;;;;;;;;;;;;;29.36;41.88;100125.48;1453597;89;20274;-83
2021/08/08 09:22:37;;;;;;;;;;;;;;;29.39;43.40;100129.00;1446962;89;20411;-83
2021/08/08 09:25:04;;;;;;;;;;;;;;;29.35;44.44;100126.58;1459774;90;20266;-83
2021/08/08 09:27:37;;;;;;;;;;;;;;;29.32;44.04;100127.11;1455799;90;20385;-83
2021/08/08 09:30:07;;;;;;;;;;;;;;;29.46;45.26;100133.59;1459324;89;20371;-83
2021/08/08 09:32:36;;;;;;;;;;;;;;;29.54;39.15;100125.37;1456932;90;20289;-83
2021/08/08 09:35:08;;;;;;;;;;;;;;;29.58;41.21;100125.91;1452263;89;20802;-83
2021/08/08 09:37:34;;;;;;;;;;;;;;;29.70;42.28;100124.80;1458016;89;20297;-83
2021/08/08 09:40:00;;;;;;;;;;;;;;;29.93;40.76;100122.72;1457976;90;20452;-83
2021/08/08 09:42:28;;;;;;;;;;;;;;;30.16;40.13;100121.73;1438129;90;20340;-84
2021/08/08 09:44:58;;;;;;;;;;;;;;;30.37;39.05;100120.48;1462286;90;20339;-83
2021/08/08 09:47:36;;;;;;;;;;;;;;;30.59;39.93;100122.74;1457819;90;20377;-83
2021/08/08 09:50:07;;;;;;;;;;;;;;;30.79;40.16;100127.22;1457216;90;20348;-83
2021/08/08 09:52:31;;;;;;;;;;;;;;;30.99;39.99;100128.35;1455905;90;20905;-83
2021/08/08 09:54:57;;;;;;;;;;;;;;;31.17;38.62;100130.06;1453559;90;20392;-83
2021/08/08 09:57:23;;;;;;;;;;;;;;;31.36;36.76;100136.94;1447951;90;20362;-83
2021/08/08 09:59:51;;;;;;;;;;;;;;;31.50;37.13;100132.94;1448012;89;20274;-83
2021/08/08 10:02:21;;;;;;;;;;;;;;;31.60;37.59;100135.55;1456663;90;20388;-83
2021/08/08 10:04:51;;;;;;;;;;;;;;;31.66;36.58;100135.73;1457018;89;20310;-84
2021/08/08 10:07:17;;;;;;;;;;;;;;;31.76;35.72;100134.20;1457584;89;20267;-83
2021/08/08 10:09:49;;;;;;;;;;;;;;;31.77;34.93;100127.64;1463690;90;20252;-83
2021/08/08 10:12:25;;;;;;;;;;;;;;;31.84;36.93;100125.89;1452801;90;20332;-83
2021/08/08 10:14:53;;;;;;;;;;;;;;;31.82;36.16;100128.94;1456262;90;20957;-84
2021/08/08 10:17:19;;;;;;;;;;;;;;;31.89;35.54;100123.89;1450562;89;20311;-83
2021/08/08 10:19:47;;;;;;;;;;;;;;;32.03;35.73;100121.25;1454067;90;20808;-83
2021/08/08 10:22:14;;;;;;;;;;;;;;;32.15;35.51;100120.78;1454073;90;20311;-84
2021/08/08 10:24:40;;;;;;;;;;;;;;;32.25;34.60;100125.27;1448796;90;20392;-84
2021/08/08 10:27:06;;;;;;;;;;;;;;;32.38;36.85;100121.77;1456975;90;20318;-84
2021/08/08 10:29:32;;;;;;;;;;;;;;;32.53;36.35;100117.97;1457066;90;20229;-83
2021/08/08 10:31:58;;;;;;;;;;;;;;;32.60;35.51;100122.51;1455544;89;20905;-84
2021/08/08 10:34:30;;;;;;;;;;;;;;;32.57;32.41;100118.44;1445278;90;20281;-82
2021/08/08 10:37:14;;;;;;;;;;;;;;;32.55;33.95;100124.77;1450361;90;20288;-81
2021/08/08 10:39:46;;;;;;;;;;;;;;;32.64;34.72;100115.30;1453020;90;20304;-82
2021/08/08 10:42:12;;;;;;;;;;;;;;;32.71;35.51;100110.78;1458070;89;20467;-82
2021/08/08 10:44:53;;;;;;;;;;;;;;;32.83;35.67;100111.65;1457257;90;20462;-81
2021/08/08 10:47:31;;;;;;;;;;;;;;;32.89;33.13;100110.46;1433172;90;20267;-82
2021/08/08 10:50:15;;;;;;;;;;;;;;;33.00;34.07;100114.63;1462954;90;20898;-84
2021/08/08 10:52:42;;;;;;;;;;;;;;;32.97;33.38;100115.20;1453410;90;20425;-83
2021/08/08 10:55:11;;;;;;;;;;;;;;;33.03;32.56;100108.53;1452114;90;20876;-84
2021/08/08 10:57:42;;;;;;;;;;;;;;;33.09;32.53;100100.48;1451516;90;20388;-84
2021/08/08 11:00:14;;;;;;;;;;;;;;;33.19;33.39;100107.66;1448277;89;20326;-83
2021/08/08 11:02:44;;;;;;;;;;;;;;;33.27;32.04;100100.66;1449590;90;20310;-84
2021/08/08 11:05:14;;;;;;;;;;;;;;;33.40;33.30;100106.09;1457810;90;20370;-84
2021/08/08 11:07:41;;;;;;;;;;;;;;;33.46;32.19;100101.31;1452562;90;20325;-84
2021/08/08 11:10:09;;;;;;;;;;;;;;;33.59;33.27;100101.87;1450444;90;20295;-83
2021/08/08 11:12:40;;;;;;;;;;;;;;;33.66;33.07;100110.51;1454317;89;20281;-83
2021/08/08 11:15:08;;;;;;;;;;;;;;;33.75;33.14;100105.63;1450741;90;20304;-83
2021/08/08 11:17:34;;;;;;;;;;;;;;;33.78;32.36;100099.52;1450595;89;20346;-85
2021/08/08 11:20:00;;;;;;;;;;;;;;;33.84;31.15;100105.16;1451994;89;20883;-83
2021/08/08 11:22:27;;;;;;;;;;;;;;;33.78;30.13;100098.98;1458896;89;20267;-83
2021/08/08 11:25:03;;;;;;;;;;;;;;;33.77;32.81;100097.34;1450554;90;20355;-84
2021/08/08 11:27:37;;;;;;;;;;;;;;;33.82;32.98;100096.42;1461270;89;20310;-84
2021/08/08 11:30:06;;;;;;;;;;;;;;;33.99;34.29;100095.17;1453070;90;20444;-84
2021/08/08 11:32:34;;;;;;;;;;;;;;;34.19;32.80;100098.56;1452565;90;20448;-84
2021/08/08 11:35:08;;;;;;;;;;;;;;;34.34;31.93;100097.59;1449785;89;20326;-84
2021/08/08 11:37:40;;;;;;;;;;;;;;;34.28;29.79;100095.30;1457659;89;21066;-84
2021/08/08 11:40:30;;;;;;;;;;;;;;;34.27;29.59;100089.55;1455082;90;20260;-84
2021/08/08 11:42:58;;;;;;;;;;;;;;;34.18;27.78;100087.31;1455400;90;20333;-84
2021/08/08 11:45:45;;;;;;;;;;;;;;;34.24;30.91;100088.27;1444409;90;20333;-84
2021/08/08 11:48:13;;;;;;;;;;;;;;;34.33;30.02;100085.56;1456148;90;20423;-84
2021/08/08 11:50:39;;;;;;;;;;;;;;;34.37;28.61;100085.98;1454168;90;20310;-84
2021/08/08 11:53:08;;;;;;;;;;;;;;;34.33;28.86;100081.45;1456239;90;20460;-83
2021/08/08 11:55:34;;;;;;;;;;;;;;;34.33;29.90;100089.12;1461702;89;20267;-84
2021/08/08 11:58:08;;;;;;;;;;;;;;;34.21;30.21;100082.56;1460196;89;20417;-84
2021/08/08 12:00:37;;;;;;;;;;;;;;;34.21;30.34;100091.64;1463424;89;20377;-83
2021/08/08 12:03:05;;;;;;;;;;;;;;;34.23;30.09;100085.25;1455308;89;20310;-84
2021/08/08 12:05:34;;;;;;;;;;;;;;;34.21;28.93;100077.08;1464501;89;20302;-84
2021/08/08 12:08:03;;;;;;;;;;;;;;;34.30;30.75;100076.58;1446335;89;20347;-84
2021/08/08 12:10:31;;;;;;;;;;;;;;;34.39;30.30;100078.81;1456297;89;20414;-84
2021/08/08 12:12:57;;;;;;;;;;;;;;;34.53;29.97;100086.39;1451134;89;20259;-84
2021/08/08 12:15:33;;;;;;;;;;;;;;;34.55;28.93;100088.27;1457680;89;20266;-84
2021/08/08 12:17:59;;;;;;;;;;;;;;;34.59;29.02;100081.03;1456323;89;20964;-83
2021/08/08 12:20:34;;;;;;;;;;;;;;;34.54;28.77;100078.38;1456891;89;20422;-84
2021/08/08 12:23:12;;;;;;;;;;;;;;;34.71;30.50;100083.17;1461461;89;20325;-84
2021/08/08 12:25:40;;;;;;;;;;;;;;;34.88;28.73;100083.80;1460374;89;20445;-84
2021/08/08 12:28:06;;;;;;;;;;;;;;;35.07;29.69;100090.98;1462351;89;20743;-84
2021/08/08 12:30:32;;;;;;;;;;;;;;;35.23;27.95;100090.79;1461952;89;20325;-84
2021/08/08 12:33:07;;;;;;;;;;;;;;;35.32;28.03;100087.48;1460509;89;20267;-84
2021/08/08 12:35:39;;;;;;;;;;;;;;;35.39;27.56;100087.83;1468479;89;20809;-84